createdAt,value
2022-08-03T00:00:42.767Z,99.90
2022-08-03T00:03:10.409Z,99.90
2022-08-03T00:08:06.099Z,99.90
2022-08-03T00:10:34.688Z,99.90
2022-08-03T00:13:02.342Z,99.90
2022-08-03T00:15:30.098Z,99.90
2022-08-03T00:17:58.258Z,99.90
2022-08-03T00:20:26.113Z,99.90
2022-08-03T00:22:53.800Z,99.90
2022-08-03T00:25:21.381Z,99.90
2022-08-03T00:27:48.955Z,99.90
2022-08-03T00:30:18.683Z,99.90
2022-08-03T00:32:47.459Z,99.90
2022-08-03T00:38:03.141Z,99.90
2022-08-03T00:40:31.930Z,99.90
2022-08-03T00:43:04.270Z,99.90
2022-08-03T00:45:42.527Z,99.90
2022-08-03T00:48:31.066Z,99.90
2022-08-03T00:51:00.021Z,99.90
2022-08-03T00:53:27.804Z,99.90
2022-08-03T00:55:55.192Z,99.90
2022-08-03T00:58:24.215Z,99.90
2022-08-03T01:03:20.054Z,99.90
2022-08-03T01:05:53.729Z,99.90
2022-08-03T01:08:45.641Z,99.90
2022-08-03T01:11:34.955Z,99.90
2022-08-03T01:14:34.315Z,99.90
2022-08-03T01:17:15.120Z,99.90
2022-08-03T01:19:56.659Z,99.90
2022-08-03T01:23:03.052Z,99.90
2022-08-03T01:25:46.296Z,99.90
2022-08-03T01:29:01.735Z,99.90
2022-08-03T01:32:58.488Z,99.90
2022-08-03T01:35:02.539Z,99.90
2022-08-03T01:37:39.698Z,99.90
2022-08-03T01:40:09.261Z,99.90
2022-08-03T01:42:38.562Z,99.90
2022-08-03T01:45:08.939Z,99.90
2022-08-03T01:47:37.078Z,99.90
2022-08-03T01:50:07.284Z,99.90
2022-08-03T01:52:37.874Z,99.90
2022-08-03T01:55:07.431Z,99.90
2022-08-03T01:58:04.588Z,99.90
2022-08-03T02:00:26.047Z,99.90
2022-08-03T02:02:55.787Z,99.90
2022-08-03T02:05:24.624Z,99.90
2022-08-03T02:07:53.090Z,99.90
2022-08-03T02:10:34.629Z,99.90
2022-08-03T02:13:06.840Z,99.90
2022-08-03T02:15:37.552Z,99.90
2022-08-03T02:18:08.120Z,99.90
2022-08-03T02:20:38.984Z,99.90
2022-08-03T02:23:07.398Z,99.90
2022-08-03T02:25:43.175Z,99.90
2022-08-03T02:28:20.092Z,99.90
2022-08-03T02:30:55.618Z,99.90
2022-08-03T02:33:37.528Z,99.90
2022-08-03T02:36:06.322Z,99.90
2022-08-03T02:38:36.895Z,99.90
2022-08-03T02:41:09.030Z,99.90
2022-08-03T02:43:40.224Z,99.90
2022-08-03T02:46:32.716Z,99.90
2022-08-03T02:49:40.710Z,99.90
2022-08-03T02:51:54.395Z,99.90
2022-08-03T02:54:25.013Z,99.90
2022-08-03T02:56:55.228Z,99.90
2022-08-03T02:59:24.891Z,99.90
2022-08-03T03:01:55.114Z,99.90
2022-08-03T03:04:24.203Z,99.90
2022-08-03T03:06:58.792Z,99.90
2022-08-03T03:09:40.387Z,99.90
2022-08-03T03:12:11.484Z,99.90
2022-08-03T03:14:39.878Z,99.90
2022-08-03T03:17:09.261Z,99.90
2022-08-03T03:19:39.461Z,99.90
2022-08-03T03:22:08.523Z,99.90
2022-08-03T03:24:36.933Z,99.90
2022-08-03T03:27:05.465Z,99.90
2022-08-03T03:29:39.156Z,99.90
2022-08-03T03:32:09.144Z,99.90
2022-08-03T03:34:37.671Z,99.90
2022-08-03T03:37:05.839Z,99.90
2022-08-03T03:39:33.702Z,99.90
2022-08-03T03:42:01.223Z,99.90
2022-08-03T03:44:30.010Z,99.90
2022-08-03T03:47:00.929Z,99.90
2022-08-03T03:49:28.726Z,99.90
2022-08-03T03:51:56.277Z,99.90
2022-08-03T03:54:25.440Z,99.90
2022-08-03T03:59:25.145Z,99.90
2022-08-03T04:01:59.100Z,99.90
2022-08-03T04:04:45.534Z,99.90
2022-08-03T04:07:31.494Z,99.90
2022-08-03T04:10:17.706Z,99.90
2022-08-03T04:12:50.361Z,99.90
2022-08-03T04:15:22.853Z,99.90
2022-08-03T04:17:53.007Z,99.90
2022-08-03T04:20:22.920Z,99.90
2022-08-03T04:22:53.001Z,99.90
2022-08-03T04:25:24.261Z,99.90
2022-08-03T04:28:29.892Z,99.90
2022-08-03T04:30:48.343Z,99.90
2022-08-03T04:33:17.689Z,99.90
2022-08-03T04:36:01.276Z,99.90
2022-08-03T04:38:37.404Z,99.90
2022-08-03T04:43:34.267Z,99.90
2022-08-03T04:46:02.942Z,99.90
2022-08-03T04:48:30.863Z,99.90
2022-08-03T04:50:58.556Z,99.90
2022-08-03T04:53:26.366Z,99.90
2022-08-03T04:55:54.112Z,99.90
2022-08-03T04:58:21.714Z,99.90
2022-08-03T05:05:49.658Z,99.90
2022-08-03T05:08:28.164Z,99.90
2022-08-03T05:10:59.090Z,99.90
2022-08-03T05:13:27.071Z,99.90
2022-08-03T05:15:54.834Z,99.90
2022-08-03T05:18:23.064Z,99.90
2022-08-03T05:20:50.786Z,99.90
2022-08-03T05:23:18.532Z,99.90
2022-08-03T05:25:50.021Z,99.90
2022-08-03T05:28:18.242Z,99.90
2022-08-03T05:33:14.168Z,99.90
2022-08-03T05:35:57.994Z,99.90
2022-08-03T05:38:34.521Z,99.90
2022-08-03T05:41:22.169Z,99.90
2022-08-03T05:43:55.685Z,99.90
2022-08-03T05:46:23.931Z,99.90
2022-08-03T05:48:51.704Z,99.90
2022-08-03T05:51:20.485Z,99.90
2022-08-03T05:53:48.246Z,99.90
2022-08-03T05:56:16.774Z,99.90
2022-08-03T05:58:46.712Z,99.90
2022-08-03T06:01:16.919Z,99.90
2022-08-03T06:03:46.169Z,99.90
2022-08-03T06:06:14.099Z,99.90
2022-08-03T06:08:44.038Z,99.90
2022-08-03T06:11:12.479Z,99.90
2022-08-03T06:13:40.920Z,99.90
2022-08-03T06:16:09.276Z,99.90
2022-08-03T06:18:37.996Z,99.90
2022-08-03T06:21:14.378Z,99.90
2022-08-03T06:23:54.356Z,99.90
2022-08-03T06:26:28.058Z,99.90
2022-08-03T06:28:56.118Z,99.90
2022-08-03T06:31:33.107Z,99.90
2022-08-03T06:34:32.099Z,99.90
2022-08-03T06:36:53.347Z,99.90
2022-08-03T06:39:23.652Z,99.90
2022-08-03T06:41:53.583Z,99.90
2022-08-03T06:44:21.631Z,99.90
2022-08-03T06:46:49.243Z,99.90
2022-08-03T06:49:16.848Z,99.90
2022-08-03T06:52:03.767Z,99.90
2022-08-03T06:54:33.290Z,99.90
2022-08-03T06:57:01.264Z,99.90
2022-08-03T07:00:07.494Z,99.90
2022-08-03T07:02:20.016Z,99.90
2022-08-03T07:04:49.024Z,99.90
2022-08-03T07:07:17.482Z,99.90
2022-08-03T07:09:56.653Z,99.90
2022-08-03T07:12:26.536Z,99.90
2022-08-03T07:14:59.822Z,99.90
2022-08-03T07:17:30.522Z,99.90
2022-08-03T07:19:59.458Z,99.90
2022-08-03T07:22:27.431Z,99.90
2022-08-03T07:27:23.209Z,99.90
2022-08-03T07:29:50.928Z,99.90
2022-08-03T07:32:18.902Z,99.90
2022-08-03T07:34:47.011Z,99.90
2022-08-03T07:37:14.737Z,99.90
2022-08-03T07:39:42.349Z,99.90
2022-08-03T07:42:10.163Z,99.90
2022-08-03T07:44:39.394Z,99.90
2022-08-03T07:47:07.212Z,99.90
2022-08-03T07:49:41.349Z,99.90
2022-08-03T07:52:28.386Z,99.90
2022-08-03T07:54:56.305Z,99.90
2022-08-03T07:57:24.182Z,99.90
2022-08-03T08:00:01.461Z,99.90
2022-08-03T08:02:40.251Z,99.90
2022-08-03T08:05:08.518Z,99.90
2022-08-03T08:07:36.530Z,99.90
2022-08-03T08:10:06.795Z,99.90
2022-08-03T08:12:34.564Z,99.90
2022-08-03T08:15:02.743Z,99.90
2022-08-03T08:17:30.698Z,99.90
2022-08-03T08:19:58.352Z,99.90
2022-08-03T08:22:29.885Z,99.90
2022-08-03T08:25:01.836Z,99.90
2022-08-03T08:28:31.804Z,99.90
2022-08-03T08:30:19.699Z,99.90
2022-08-03T08:32:48.163Z,99.90
2022-08-03T08:35:16.978Z,99.90
2022-08-03T08:37:51.006Z,99.90
2022-08-03T08:40:22.574Z,99.90
2022-08-03T08:42:59.165Z,99.90
2022-08-03T08:45:28.363Z,99.90
2022-08-03T08:48:01.858Z,99.90
2022-08-03T08:50:32.009Z,99.90
2022-08-03T08:53:03.750Z,99.90
2022-08-03T08:55:58.877Z,99.90
2022-08-03T08:58:23.383Z,99.90
2022-08-03T09:00:51.375Z,99.90
2022-08-03T09:03:22.513Z,99.90
2022-08-03T09:06:01.208Z,99.90
2022-08-03T09:08:30.229Z,99.90
2022-08-03T09:10:58.299Z,99.90
2022-08-03T09:13:26.351Z,99.90
2022-08-03T09:16:18.396Z,99.90
2022-08-03T09:18:51.465Z,99.90
2022-08-03T09:21:34.937Z,99.90
2022-08-03T09:24:06.273Z,99.90
2022-08-03T09:26:37.339Z,99.90
2022-08-03T09:29:14.835Z,99.90
2022-08-03T09:31:45.363Z,99.90
2022-08-03T09:34:15.995Z,99.90
2022-08-03T09:36:49.349Z,99.90
2022-08-03T09:39:17.959Z,99.90
2022-08-03T09:41:48.246Z,99.90
2022-08-03T09:44:25.347Z,99.90
2022-08-03T09:46:58.961Z,99.90
2022-08-03T09:49:26.747Z,99.90
2022-08-03T09:52:38.495Z,99.90
2022-08-03T09:54:43.495Z,99.90
2022-08-03T09:57:22.761Z,99.90
2022-08-03T09:59:54.989Z,99.90
2022-08-03T10:02:41.910Z,99.90
2022-08-03T10:05:19.474Z,99.90
2022-08-03T10:07:50.824Z,99.90
2022-08-03T10:10:30.726Z,99.90
2022-08-03T10:13:03.208Z,99.90
2022-08-03T10:18:19.856Z,99.90
2022-08-03T10:20:53.137Z,99.90
2022-08-03T10:23:23.845Z,99.90
2022-08-03T10:25:58.025Z,99.90
2022-08-03T10:28:26.407Z,99.90
2022-08-03T10:30:55.450Z,99.90
2022-08-03T10:33:51.126Z,99.90
2022-08-03T10:36:16.939Z,99.90
2022-08-03T10:38:52.752Z,99.90
2022-08-03T10:41:23.217Z,99.90
2022-08-03T10:44:03.825Z,99.90
2022-08-03T10:46:33.568Z,99.90
2022-08-03T10:49:01.775Z,99.90
2022-08-03T10:51:32.236Z,99.90
2022-08-03T10:54:01.932Z,99.90
2022-08-03T10:56:51.465Z,99.90
2022-08-03T10:59:48.473Z,99.90
2022-08-03T11:02:16.641Z,99.90
2022-08-03T11:07:20.090Z,99.90
2022-08-03T11:09:53.418Z,99.90
2022-08-03T11:12:34.363Z,99.90
2022-08-03T11:15:08.861Z,99.90
2022-08-03T11:17:46.517Z,99.90
2022-08-03T11:20:54.172Z,99.90
2022-08-03T11:24:02.717Z,99.90
2022-08-03T11:26:34.633Z,99.90
2022-08-03T11:29:31.520Z,99.90
2022-08-03T11:31:59.386Z,99.90
2022-08-03T11:34:27.014Z,99.90
2022-08-03T11:37:22.237Z,99.90
2022-08-03T11:39:52.979Z,99.90
2022-08-03T11:42:27.091Z,99.90
2022-08-03T11:44:57.676Z,99.90
2022-08-03T11:47:29.645Z,99.90
2022-08-03T11:50:00.369Z,99.90
2022-08-03T11:52:33.899Z,99.90
2022-08-03T11:55:01.956Z,99.90
2022-08-03T11:59:10.798Z,99.90
2022-08-03T12:00:34.352Z,99.90
2022-08-03T12:03:14.507Z,99.90
2022-08-03T12:05:51.415Z,99.90
2022-08-03T12:08:32.225Z,99.90
2022-08-03T12:11:04.558Z,99.90
2022-08-03T12:14:45.352Z,99.90
2022-08-03T12:16:28.854Z,99.90
2022-08-03T12:18:57.880Z,99.90
2022-08-03T12:21:25.907Z,99.90
2022-08-03T12:24:00.318Z,99.90
2022-08-03T12:26:30.142Z,99.90
2022-08-03T12:28:58.437Z,99.90
2022-08-03T12:31:27.101Z,99.90
2022-08-03T12:34:03.332Z,99.90
2022-08-03T12:36:33.273Z,99.90
2022-08-03T12:39:08.928Z,99.90
2022-08-03T12:41:39.529Z,99.90
2022-08-03T12:44:08.762Z,99.90
2022-08-03T12:46:41.665Z,99.90
2022-08-03T12:49:19.090Z,99.90
2022-08-03T12:51:47.059Z,99.90
2022-08-03T12:54:24.523Z,99.90
2022-08-03T12:57:16.225Z,99.90
2022-08-03T12:59:53.592Z,99.90
2022-08-03T13:02:25.571Z,99.90
2022-08-03T13:04:55.386Z,99.90
2022-08-03T13:07:23.621Z,99.90
2022-08-03T13:09:56.868Z,99.90
2022-08-03T13:12:27.531Z,99.90
2022-08-03T13:15:00.185Z,99.90
2022-08-03T13:17:28.227Z,99.90
2022-08-03T13:19:56.505Z,99.90
2022-08-03T13:22:27.207Z,99.90
2022-08-03T13:24:57.472Z,99.90
2022-08-03T13:28:04.415Z,99.90
2022-08-03T13:30:17.905Z,99.90
2022-08-03T13:32:58.841Z,99.90
2022-08-03T13:35:26.947Z,99.90
2022-08-03T13:37:54.670Z,99.90
2022-08-03T13:42:58.536Z,99.90
2022-08-03T13:45:27.596Z,99.90
2022-08-03T13:47:55.468Z,99.90
2022-08-03T13:50:24.110Z,98.90
2022-08-03T13:52:51.943Z,99.00
2022-08-03T14:00:36.407Z,98.80
2022-08-03T14:03:12.583Z,98.80
2022-08-03T14:05:43.011Z,99.00
2022-08-03T14:08:11.121Z,99.20
2022-08-03T14:10:43.222Z,98.70
2022-08-03T14:13:17.471Z,98.20
2022-08-03T14:15:49.862Z,97.80
2022-08-03T14:18:27.905Z,98.10
2022-08-03T14:21:05.931Z,98.40
2022-08-03T14:26:02.077Z,96.60
2022-08-03T14:28:30.080Z,96.10
2022-08-03T14:30:58.231Z,96.30
2022-08-03T14:33:26.148Z,97.10
2022-08-03T14:35:54.612Z,95.80
2022-08-03T14:38:23.163Z,96.00
2022-08-03T14:40:51.494Z,94.80
2022-08-03T14:43:21.255Z,94.90
2022-08-03T14:45:52.314Z,93.60
2022-08-03T14:50:27.778Z,94.00
2022-08-03T14:51:09.090Z,93.10
2022-08-03T14:53:36.901Z,92.70
2022-08-03T14:56:09.605Z,92.70
2022-08-03T14:58:38.678Z,91.80
2022-08-03T15:02:04.675Z,92.10
2022-08-03T15:03:55.252Z,91.60
2022-08-03T15:06:22.937Z,92.00
2022-08-03T15:09:13.619Z,90.80
2022-08-03T15:11:38.715Z,90.90
2022-08-03T15:14:09.443Z,89.70
2022-08-03T15:16:39.764Z,90.30
2022-08-03T15:20:03.242Z,90.50
2022-08-03T15:21:55.268Z,90.30
2022-08-03T15:24:23.097Z,89.70
2022-08-03T15:26:53.045Z,89.30
2022-08-03T15:30:08.221Z,88.90
2022-08-03T15:32:09.636Z,89.60
2022-08-03T15:34:37.971Z,89.60
2022-08-03T15:37:12.906Z,90.10
2022-08-03T15:39:58.122Z,90.10
2022-08-03T15:42:29.597Z,87.70
2022-08-03T15:47:26.555Z,86.40
2022-08-03T15:49:54.238Z,87.20
2022-08-03T15:52:22.075Z,87.70
2022-08-03T15:54:49.718Z,87.10
2022-08-03T15:57:17.890Z,85.80
2022-08-03T16:02:13.988Z,85.40
2022-08-03T16:04:42.221Z,85.30
2022-08-03T16:07:12.587Z,85.40
2022-08-03T16:09:43.470Z,86.10
2022-08-03T16:12:15.665Z,86.40
2022-08-03T16:14:52.679Z,86.60
2022-08-03T16:17:24.231Z,86.90
2022-08-03T16:19:54.871Z,86.80
2022-08-03T16:22:26.371Z,85.60
2022-08-03T16:24:54.661Z,84.40
2022-08-03T16:27:37.686Z,84.40
2022-08-03T16:30:13.119Z,84.30
2022-08-03T16:32:41.258Z,83.40
2022-08-03T16:35:09.500Z,83.80
2022-08-03T16:37:50.766Z,84.30
2022-08-03T16:40:25.205Z,83.70
2022-08-03T16:42:53.947Z,84.00
2022-08-03T16:45:22.226Z,84.90
2022-08-03T16:48:05.279Z,84.60
2022-08-03T16:50:35.772Z,81.90
2022-08-03T16:53:09.059Z,82.00
2022-08-03T16:55:43.382Z,81.40
2022-08-03T16:58:24.474Z,81.50
2022-08-03T17:01:21.770Z,82.00
2022-08-03T17:04:03.453Z,83.60
2022-08-03T17:06:45.175Z,83.10
2022-08-03T17:09:20.838Z,83.10
2022-08-03T17:11:50.750Z,83.10
2022-08-03T17:14:28.374Z,82.20
2022-08-03T17:17:03.750Z,82.70
2022-08-03T17:22:18.812Z,81.40
2022-08-03T17:24:51.605Z,82.00
2022-08-03T17:28:48.490Z,82.00
2022-08-03T17:30:13.304Z,82.40
2022-08-03T17:32:52.741Z,82.60
2022-08-03T17:35:34.333Z,82.50
2022-08-03T17:38:10.286Z,82.60
2022-08-03T17:40:48.024Z,82.90
2022-08-03T17:44:14.509Z,83.60
2022-08-03T17:48:41.223Z,84.50
2022-08-03T17:51:34.541Z,85.00
2022-08-03T17:54:30.701Z,85.60
2022-08-03T18:00:35.301Z,86.60
2022-08-03T18:03:56.939Z,87.90
2022-08-03T18:06:31.304Z,88.90
2022-08-03T18:09:05.231Z,89.90
2022-08-03T18:11:55.493Z,90.10
2022-08-03T18:14:57.345Z,90.40
2022-08-03T18:17:54.978Z,91.00
2022-08-03T18:20:33.189Z,91.30
2022-08-03T18:23:10.569Z,91.70
2022-08-03T18:25:49.991Z,92.10
2022-08-03T18:28:23.182Z,92.30
2022-08-03T18:30:54.574Z,92.80
2022-08-03T18:34:17.325Z,92.90
2022-08-03T18:36:29.495Z,93.30
2022-08-03T18:39:01.747Z,93.00
2022-08-03T18:41:34.676Z,93.20
2022-08-03T18:44:08.394Z,93.30
2022-08-03T18:47:08.059Z,93.60
2022-08-03T18:50:19.349Z,93.60
2022-08-03T18:53:15.743Z,94.00
2022-08-03T18:56:02.742Z,94.10
2022-08-03T18:58:47.494Z,94.30
2022-08-03T19:01:58.379Z,94.80
2022-08-03T19:04:35.777Z,95.10
2022-08-03T19:07:08.010Z,95.20
2022-08-03T19:09:36.095Z,95.30
2022-08-03T19:12:30.770Z,95.60
2022-08-03T19:15:10.577Z,96.10
2022-08-03T19:17:53.409Z,96.20
2022-08-03T19:20:23.020Z,96.40
2022-08-03T19:22:55.089Z,96.60
2022-08-03T19:25:34.306Z,96.80
2022-08-03T19:28:07.410Z,97.30
2022-08-03T19:30:38.978Z,97.50
2022-08-03T19:33:11.330Z,97.70
2022-08-03T19:35:51.696Z,98.00
2022-08-03T19:38:28.689Z,98.40
2022-08-03T19:41:03.670Z,98.70
2022-08-03T19:44:08.887Z,98.90
2022-08-03T19:47:01.542Z,99.70
2022-08-03T19:49:56.975Z,99.90
2022-08-03T19:52:31.238Z,99.90
2022-08-03T19:55:00.494Z,99.90
2022-08-03T19:57:29.492Z,99.90
2022-08-03T20:00:03.415Z,99.90
2022-08-03T20:02:35.346Z,99.90
2022-08-03T20:05:03.076Z,99.90
2022-08-03T20:07:32.936Z,99.90
2022-08-03T20:10:04.375Z,99.90
2022-08-03T20:12:39.197Z,99.90
2022-08-03T20:15:09.947Z,99.90
2022-08-03T20:17:54.570Z,99.90
2022-08-03T20:20:36.034Z,99.90
2022-08-03T20:23:11.406Z,99.90
2022-08-03T20:25:57.357Z,99.90
2022-08-03T20:28:50.088Z,99.90
2022-08-03T20:31:25.137Z,99.90
2022-08-03T20:34:01.092Z,99.90
2022-08-03T20:36:29.186Z,99.90
2022-08-03T20:38:58.759Z,99.90
2022-08-03T20:41:30.705Z,99.90
2022-08-03T20:44:07.481Z,99.90
2022-08-03T20:46:53.437Z,99.90
2022-08-03T20:49:26.043Z,99.90
2022-08-03T20:51:54.606Z,99.90
2022-08-03T20:54:29.681Z,99.90
2022-08-03T20:57:03.573Z,99.90
2022-08-03T20:59:50.226Z,99.90
2022-08-03T21:02:28.886Z,99.90
2022-08-03T21:05:03.665Z,99.90
2022-08-03T21:08:06.368Z,99.90
2022-08-03T21:10:38.594Z,99.90
2022-08-03T21:13:04.062Z,85.60
2022-08-03T21:13:39.410Z,99.90
2022-08-03T21:16:14.612Z,99.90
2022-08-03T21:18:51.168Z,99.90
2022-08-03T21:21:21.513Z,99.90
2022-08-03T21:23:52.711Z,99.90
2022-08-03T21:26:22.632Z,99.90
2022-08-03T21:28:52.059Z,99.90
2022-08-03T21:31:25.577Z,99.90
2022-08-03T21:33:55.580Z,99.90
2022-08-03T21:36:23.702Z,99.90
2022-08-03T21:38:56.504Z,99.90
2022-08-03T21:41:31.344Z,99.90
2022-08-03T21:44:00.903Z,99.90
2022-08-03T21:46:35.210Z,99.90
2022-08-03T21:50:05.845Z,99.90
2022-08-03T21:51:58.033Z,99.90
2022-08-03T21:54:38.283Z,99.90
2022-08-03T21:57:13.359Z,99.90
2022-08-03T21:59:51.723Z,99.90
2022-08-03T22:02:24.500Z,99.90
2022-08-03T22:04:55.564Z,99.90
2022-08-03T22:07:29.038Z,99.90
2022-08-03T22:09:58.895Z,99.90
2022-08-03T22:12:29.753Z,99.90
2022-08-03T22:15:07.530Z,99.90
2022-08-03T22:17:54.527Z,99.90
2022-08-03T22:20:25.345Z,99.90
2022-08-03T22:22:56.601Z,99.90
2022-08-03T22:25:30.925Z,99.90
2022-08-03T22:28:08.249Z,99.90
2022-08-03T22:30:37.367Z,99.90
2022-08-03T22:33:11.169Z,99.90
2022-08-03T22:35:48.267Z,99.90
2022-08-03T22:38:18.089Z,99.90
2022-08-03T22:40:49.907Z,99.90
2022-08-03T22:43:17.955Z,99.90
2022-08-03T22:46:10.275Z,99.90
2022-08-03T22:48:40.856Z,99.90
2022-08-03T22:51:09.502Z,99.90
2022-08-03T22:53:38.609Z,99.90
2022-08-03T22:56:07.312Z,99.90
2022-08-03T22:58:35.503Z,99.90
2022-08-03T23:01:08.101Z,99.90
2022-08-03T23:03:59.878Z,99.90
2022-08-03T23:06:34.586Z,99.90
2022-08-03T23:09:06.261Z,99.90
2022-08-03T23:11:45.412Z,99.90
2022-08-03T23:14:16.494Z,99.90
2022-08-03T23:16:45.700Z,99.90
2022-08-03T23:19:16.651Z,99.90
2022-08-03T23:21:53.302Z,99.90
2022-08-03T23:24:30.553Z,99.90
2022-08-03T23:26:59.433Z,99.90
2022-08-03T23:31:59.579Z,99.90
2022-08-03T23:34:46.665Z,99.90
2022-08-03T23:37:16.732Z,99.90
2022-08-03T23:39:48.646Z,99.90
2022-08-03T23:44:54.756Z,99.90
2022-08-03T23:47:23.433Z,99.90
2022-08-03T23:49:54.629Z,99.90
2022-08-03T23:52:37.516Z,99.90
2022-08-03T23:55:18.090Z,99.90
2022-08-03T23:58:10.975Z,99.90
